Providence, Rhode Island
Current Conditions -  °F | °C
As of 7:51 AM on Wednesday 22 Oct 2014 (Local Time) from KPVD Reporting Station
Drizzle Drizzle  
Wind Chill: 53°   Ceiling: 700
Heat Index: 53°   Visibility: 7mi
Dew Point: 50°   Wind: 14mph
Humidity: 89%   Direction: 10°N
Pressure: 29.96"   Gusts: NA
Location:  41.82°N, 71.41°W
Report Text: KPVD 221151Z 01012KT 7SM -DZ OVC007 12/10 A2996 RMK AO2 DZE17B44 SLP144 P0000 60000 70006 T01170100 10128 20111 51001
Loading
Personal Weather Stations






























Interactive Weather Map
Tropical Storm Tracking
New forecast layout! Learn more

10-Day Weather Forecast

Advertisements
Track Severe Weather on mobile